Météo Nord-Pas-de-Calais   La météo au plus près de chez vous

Station météorologique

Observations météo à Leran (09161)

09161003 391 m Dernier relevé à 04:12
12.7°C
Humidité 85 % Vent 2.9 km/h

Journée consultée

Vendredi 4 Septembre 2026

Synthèse de la journée

Périodes de référence en UTC

Température maximale

31.5°C

à 17:30

06h 06h

Température minimale

12.6°C

à 04:06

18h 18h

Rafale maximale

7 km/h

à 02:48

00h 00h

Précipitations

0 mm

Cumul quotidien

06h 06h

Graphiques de la journée

Heure locale Réduire

Données détaillées

Relevés météo

Pas de 6 minutes Afficher les relevés infra-horaires
Relevés météo détaillés à Leran pour le Vendredi 4 Septembre 2026
Heure Température °C Point de rosée °C Humidité % Vent moyen (raf.), km/h Précipitations mm
04:12 12.7 °C 10.6 °C 87 % 2 km/h (4 km/h) 0 mm0 mm
04:06 12.6 °C 10.3 °C 86 % 0 km/h (3 km/h) 0 mm0 mm
04:00 12.7 °C 10.4 °C 86 % 0 km/h (2 km/h) 0 mm0 mm
03:54 12.8 °C 10.5 °C 86 % 0 km/h (2 km/h) 0 mm0 mm
03:48 13.1 °C 11.2 °C 88 % 0 km/h (0 km/h) 0 mm0 mm
03:42 13.2 °C 11.3 °C 88 % 0 km/h (3 km/h) 0 mm0 mm
03:36 13.2 °C 11.1 °C 87 % 2 km/h (4 km/h) 0 mm0 mm
03:30 13.2 °C 10.7 °C 85 % 2 km/h (4 km/h) 0 mm0 mm
03:24 13.4 °C 11.1 °C 86 % 0 km/h (3 km/h) 0 mm0 mm
03:18 13.4 °C 10.9 °C 85 % 2 km/h (4 km/h) 0 mm0 mm
03:12 13.5 °C 11 °C 85 % 3 km/h (4 km/h) 0 mm0 mm
03:06 13.5 °C 11 °C 85 % 2 km/h (4 km/h) 0 mm0 mm
03:00 13.5 °C 10.7 °C 83 % 2 km/h (4 km/h) 0 mm0 mm
02:54 13.6 °C 10.8 °C 83 % 4 km/h (6 km/h) 0 mm0 mm
02:48 13.7 °C 10.9 °C 83 % 5 km/h (7 km/h) 0 mm0 mm
02:42 13.7 °C 10.9 °C 83 % 4 km/h (5 km/h) 0 mm0 mm
02:36 13.9 °C 11.6 °C 86 % 3 km/h (5 km/h) 0 mm0 mm
02:30 13.8 °C 11 °C 83 % 3 km/h (4 km/h) 0 mm0 mm
02:24 13.8 °C 10.8 °C 82 % 2 km/h (3 km/h) 0 mm0 mm
02:18 13.8 °C 10.8 °C 82 % 2 km/h (3 km/h) 0 mm0 mm
02:12 13.9 °C 10.9 °C 82 % 0 km/h (2 km/h) 0 mm0 mm
02:06 14.1 °C 11.6 °C 85 % 0 km/h (0 km/h) 0 mm0 mm
02:00 14.2 °C 11.7 °C 85 % 0 km/h (0 km/h) 0 mm0 mm
01:54 14.2 °C 11.4 °C 83 % 0 km/h (0 km/h) 0 mm0 mm
01:48 14.2 °C 11.2 °C 82 % 0 km/h (0 km/h) 0 mm0 mm
01:42 14.3 °C 11.1 °C 81 % 0 km/h (0 km/h) 0 mm0 mm
01:36 14.5 °C 11.1 °C 80 % 0 km/h (2 km/h) 0 mm0 mm
01:30 14.7 °C 11.3 °C 80 % 0 km/h (3 km/h) 0 mm0 mm
01:24 14.7 °C 11.3 °C 80 % 2 km/h (3 km/h) 0 mm0 mm
01:18 14.5 °C 10.5 °C 77 % 2 km/h (3 km/h) 0 mm0 mm
01:12 14.8 °C 11.2 °C 79 % 2 km/h (4 km/h) 0 mm0 mm
01:06 15 °C 11.2 °C 78 % 2 km/h (4 km/h) 0 mm0 mm
01:00 15.1 °C 11.1 °C 77 % 0 km/h (4 km/h) 0 mm0 mm
00:54 15.1 °C 11.1 °C 77 % 3 km/h (5 km/h) 0 mm0 mm
00:48 15.2 °C 11 °C 76 % 3 km/h (5 km/h) 0 mm0 mm
00:42 15.3 °C 11.1 °C 76 % 3 km/h (4 km/h) 0 mm0 mm
00:36 15.3 °C 11.1 °C 76 % 3 km/h (4 km/h) 0 mm0 mm
00:30 15.4 °C 11 °C 75 % 3 km/h (4 km/h) 0 mm0 mm
00:24 15.4 °C 11 °C 75 % 2 km/h (4 km/h) 0 mm0 mm
00:18 15.5 °C 11.1 °C 75 % 0 km/h (2 km/h) 0 mm0 mm
00:12 15.7 °C 11.9 °C 78 % 0 km/h (2 km/h) 0 mm0 mm
00:06 15.9 °C 11.9 °C 77 % 0 km/h (3 km/h) 0 mm0 mm
00:00 16 °C 11.4 °C 74 % 2 km/h (4 km/h) 0 mm0 mm

Données via Météo-France

Relevés météo à Leran

Cette page rassemble les observations de la station de Leran : température, humidité, vent, précipitations et pression atmosphérique. Les graphiques facilitent le suivi de la journée, tandis que le tableau donne accès aux mesures horaires et infra-horaires disponibles.

Pour replacer ces mesures dans leur contexte, consultez la climatologie de Leran ainsi que ses normales et records. Retrouvez aussi la carte des observations météo en temps réel.